Terminal Aerodrome Forecast
Issued by NWS

Current Version | Previous Version | Text Only | Print | Product List | Glossary On
Versions: 1 2 3 4 5 6 7 8 9 10 11 12 13 14 15 16 17 18 19 20 21 22 23
000
FTUS45 KPSR 301100
TAFIWA
TAF
KIWA 301120Z 3012/0112 12005KT P6SM SKC
     FM301700 VRB03KT P6SM SKC
     FM302000 27006KT P6SM SKC
     FM010500 12005KT P6SM SKC
      AMD LTD TO CLD VIS AND WIND TIL 301300=

USA.gov is the U.S. government's official web portal to all federal, state and local government web resources and services.